createdAt,value
2017-08-03T00:01:47.621Z,18.50
2017-08-03T00:04:16.162Z,18.70
2017-08-03T00:06:44.662Z,18.80
2017-08-03T00:09:13.198Z,18.80
2017-08-03T00:11:41.617Z,18.70
2017-08-03T00:14:10.099Z,18.70
2017-08-03T00:16:38.593Z,18.60
2017-08-03T00:19:07.072Z,18.50
2017-08-03T00:21:35.670Z,18.50
2017-08-03T00:24:04.199Z,18.40
2017-08-03T00:26:32.680Z,18.20
2017-08-03T00:29:01.208Z,18.10
2017-08-03T00:31:29.654Z,18.00
2017-08-03T00:33:58.140Z,17.90
2017-08-03T00:36:27.183Z,17.70
2017-08-03T00:38:55.693Z,17.60
2017-08-03T00:41:24.184Z,17.60
2017-08-03T00:43:52.630Z,17.60
2017-08-03T00:46:21.131Z,17.60
2017-08-03T00:48:49.579Z,17.70
2017-08-03T00:51:18.047Z,17.70
2017-08-03T00:53:46.530Z,17.70
2017-08-03T00:56:15.000Z,17.80
2017-08-03T00:58:43.538Z,17.80
2017-08-03T01:01:12.108Z,17.80
2017-08-03T01:03:40.563Z,17.70
2017-08-03T01:06:09.081Z,17.70
2017-08-03T01:08:37.549Z,17.70
2017-08-03T01:11:06.118Z,17.70
2017-08-03T01:13:34.570Z,17.90
2017-08-03T01:16:02.337Z,18.00
2017-08-03T01:18:30.894Z,18.00
2017-08-03T01:20:58.646Z,18.30
2017-08-03T01:23:27.111Z,18.60
2017-08-03T01:25:55.699Z,18.90
2017-08-03T01:28:24.166Z,18.90
2017-08-03T01:30:52.625Z,18.90
2017-08-03T01:33:21.206Z,19.00
2017-08-03T01:35:49.654Z,19.00
2017-08-03T01:38:18.195Z,19.00
2017-08-03T01:40:46.653Z,19.10
2017-08-03T01:43:15.068Z,19.10
2017-08-03T01:45:43.575Z,19.10
2017-08-03T01:48:12.099Z,19.20
2017-08-03T01:50:40.622Z,19.10
2017-08-03T01:53:08.715Z,18.90
2017-08-03T01:55:36.892Z,18.80
2017-08-03T01:58:05.345Z,18.70
2017-08-03T02:00:33.453Z,18.60
2017-08-03T02:03:01.963Z,18.70
2017-08-03T02:05:29.694Z,18.80
2017-08-03T02:07:57.489Z,19.00
2017-08-03T02:10:25.643Z,19.10
2017-08-03T02:12:54.164Z,19.20
2017-08-03T02:15:22.618Z,19.20
2017-08-03T02:17:51.074Z,19.20
2017-08-03T02:20:19.499Z,19.20
2017-08-03T02:22:47.933Z,19.10
2017-08-03T02:25:16.428Z,19.10
2017-08-03T02:27:44.875Z,19.10
2017-08-03T02:30:13.338Z,19.20
2017-08-03T02:32:41.817Z,19.10
2017-08-03T02:35:11.078Z,19.10
2017-08-03T02:37:39.534Z,19.20
2017-08-03T02:40:08.017Z,19.10
2017-08-03T02:42:36.481Z,19.10
2017-08-03T02:45:05.009Z,19.20
2017-08-03T02:47:33.686Z,19.20
2017-08-03T02:50:02.131Z,19.20
2017-08-03T02:52:30.599Z,19.20
2017-08-03T02:54:59.040Z,19.20
2017-08-03T02:57:27.526Z,19.00
2017-08-03T02:59:56.078Z,18.90
2017-08-03T03:02:24.525Z,18.80
2017-08-03T03:04:52.963Z,18.70
2017-08-03T03:07:21.498Z,18.60
2017-08-03T03:09:49.979Z,18.60
2017-08-03T03:12:18.526Z,18.60
2017-08-03T03:14:46.990Z,18.70
2017-08-03T03:17:15.428Z,18.80
2017-08-03T03:19:43.883Z,18.80
2017-08-03T03:22:12.380Z,18.90
2017-08-03T03:24:40.822Z,18.90
2017-08-03T03:27:09.288Z,18.90
2017-08-03T03:29:37.839Z,18.80
2017-08-03T03:32:06.302Z,18.70
2017-08-03T03:34:34.814Z,18.70
2017-08-03T03:37:03.510Z,18.60
2017-08-03T03:39:31.955Z,18.50
2017-08-03T03:42:00.330Z,18.50
2017-08-03T03:44:29.555Z,18.60
2017-08-03T03:46:58.075Z,18.80
2017-08-03T03:49:26.569Z,18.80
2017-08-03T03:51:55.034Z,18.90
2017-08-03T03:54:23.566Z,18.90
2017-08-03T03:56:52.043Z,19.00
2017-08-03T03:59:20.628Z,19.00
2017-08-03T04:01:49.099Z,19.10
2017-08-03T04:04:17.630Z,19.10
2017-08-03T04:06:46.061Z,19.10
2017-08-03T04:09:14.510Z,19.10
2017-08-03T04:11:43.011Z,19.10
2017-08-03T04:14:11.515Z,19.10
2017-08-03T04:16:39.964Z,19.10
2017-08-03T04:19:08.434Z,19.10
2017-08-03T04:21:36.874Z,19.10
2017-08-03T04:24:05.378Z,19.10
2017-08-03T04:26:34.107Z,19.20
2017-08-03T04:29:02.622Z,19.20
2017-08-03T04:31:31.217Z,19.20
2017-08-03T04:33:59.679Z,19.10
2017-08-03T04:36:28.158Z,19.10
2017-08-03T04:38:56.609Z,19.00
2017-08-03T04:41:25.090Z,19.00
2017-08-03T04:43:53.604Z,19.10
2017-08-03T04:46:22.058Z,19.30
2017-08-03T04:48:50.578Z,19.40
2017-08-03T04:51:19.135Z,19.60
2017-08-03T04:53:47.578Z,19.60
2017-08-03T04:56:16.152Z,19.70
2017-08-03T04:58:44.617Z,19.70
2017-08-03T05:01:13.118Z,19.70
2017-08-03T05:03:41.594Z,19.70
2017-08-03T05:06:10.070Z,19.80
2017-08-03T05:08:38.537Z,19.90
2017-08-03T05:11:07.069Z,20.10
2017-08-03T05:13:35.558Z,20.20
2017-08-03T05:16:04.085Z,20.20
2017-08-03T05:18:32.572Z,20.30
2017-08-03T05:21:01.017Z,20.40
2017-08-03T05:23:29.720Z,20.40
2017-08-03T05:25:57.928Z,20.30
2017-08-03T05:28:26.474Z,20.30
2017-08-03T05:30:54.963Z,20.50
2017-08-03T05:33:23.523Z,20.60
2017-08-03T05:35:52.087Z,20.60
2017-08-03T05:38:20.582Z,20.70
2017-08-03T05:40:48.854Z,20.80
2017-08-03T05:43:17.382Z,21.10
2017-08-03T05:45:45.822Z,21.30
2017-08-03T05:48:14.247Z,21.40
2017-08-03T05:50:42.707Z,21.70
2017-08-03T05:53:11.130Z,21.80
2017-08-03T05:55:39.600Z,22.00
2017-08-03T05:58:07.891Z,22.30
2017-08-03T06:00:35.625Z,22.40
2017-08-03T06:03:04.103Z,22.90
2017-08-03T06:05:32.551Z,23.10
2017-08-03T06:08:01.019Z,23.20
2017-08-03T06:10:29.515Z,23.30
2017-08-03T06:12:58.030Z,23.40
2017-08-03T06:15:26.519Z,23.50
2017-08-03T06:17:54.957Z,23.70
2017-08-03T06:20:23.407Z,24.10
2017-08-03T06:22:51.842Z,24.30
2017-08-03T06:25:20.303Z,24.90
2017-08-03T06:27:48.787Z,25.10
2017-08-03T06:30:17.233Z,25.50
2017-08-03T06:32:45.713Z,25.60
2017-08-03T06:35:14.269Z,26.00
2017-08-03T06:37:42.743Z,26.00
2017-08-03T11:17:10.674Z,40.80
2017-08-03T11:19:51.910Z,40.10
2017-08-03T11:22:39.874Z,39.60
2017-08-03T11:33:19.712Z,40.30
2017-08-03T11:35:48.267Z,39.50
2017-08-03T11:38:18.274Z,39.40
2017-08-03T11:43:22.716Z,39.00
2017-08-03T11:45:54.306Z,38.90
2017-08-03T11:51:00.559Z,38.90
2017-08-03T11:53:29.302Z,39.10
2017-08-03T11:55:57.979Z,38.70
2017-08-03T12:01:04.796Z,39.40
2017-08-03T12:03:38.751Z,38.90
2017-08-03T12:06:07.951Z,38.70
2017-08-03T12:08:37.734Z,38.60
2017-08-03T12:11:13.180Z,38.80
2017-08-03T12:16:29.114Z,38.20
2017-08-03T12:18:59.946Z,38.00
2017-08-03T12:21:28.530Z,38.10
2017-08-03T12:23:58.085Z,37.90
2017-08-03T12:26:26.422Z,37.20
2017-08-03T12:28:55.145Z,37.10
2017-08-03T12:31:24.916Z,37.00
2017-08-03T12:33:54.881Z,36.70
2017-08-03T12:36:23.612Z,36.70
2017-08-03T12:38:52.613Z,36.50
2017-08-03T12:41:22.142Z,35.80
2017-08-03T12:43:51.586Z,36.00
2017-08-03T12:46:20.188Z,36.00
2017-08-03T12:48:56.979Z,36.00
2017-08-03T12:51:27.183Z,36.00
2017-08-03T12:53:56.427Z,36.20
2017-08-03T12:56:25.015Z,36.50
2017-08-03T12:58:54.259Z,36.10
2017-08-03T13:01:32.189Z,36.20
2017-08-03T13:04:00.693Z,36.10
2017-08-03T13:12:07.824Z,36.20
2017-08-03T13:14:36.449Z,36.10
2017-08-03T13:23:23.103Z,35.70
2017-08-03T13:31:52.072Z,35.80
2017-08-03T13:34:27.282Z,35.80
2017-08-03T13:37:01.326Z,35.20
2017-08-03T13:45:04.953Z,35.50
2017-08-03T13:48:01.386Z,35.30
2017-08-03T14:45:03.979Z,35.00
2017-08-03T15:30:09.613Z,30.80
2017-08-03T15:32:39.655Z,31.20
2017-08-03T15:35:09.156Z,31.40
2017-08-03T15:40:44.822Z,32.20
2017-08-03T15:43:25.028Z,32.20
2017-08-03T15:48:48.348Z,32.80
2017-08-03T16:34:39.879Z,28.70
2017-08-03T16:46:57.280Z,28.10
2017-08-03T16:49:29.617Z,28.00
2017-08-03T16:54:50.464Z,28.00
2017-08-03T17:52:18.514Z,26.10
2017-08-03T18:00:45.516Z,25.60
2017-08-03T18:32:21.215Z,24.70
2017-08-03T20:03:19.376Z,24.70
2017-08-03T20:36:03.167Z,26.10
2017-08-03T20:47:01.635Z,25.90
2017-08-03T21:02:43.167Z,25.80
2017-08-03T21:41:27.196Z,25.10
2017-08-03T21:44:00.831Z,25.10
2017-08-03T21:46:32.758Z,25.10
2017-08-03T21:49:10.274Z,25.10
2017-08-03T21:52:05.353Z,25.00
2017-08-03T21:57:46.054Z,25.10
2017-08-03T22:00:14.983Z,25.10
2017-08-03T22:05:42.151Z,25.10
2017-08-03T22:08:15.747Z,25.10
2017-08-03T22:10:44.454Z,25.10
2017-08-03T22:13:35.306Z,25.10
2017-08-03T22:16:21.411Z,25.10
2017-08-03T22:18:51.870Z,25.10
2017-08-03T22:21:20.727Z,25.10
2017-08-03T22:23:49.377Z,25.10
2017-08-03T22:26:21.747Z,24.90
2017-08-03T22:28:55.082Z,24.90
2017-08-03T22:31:36.096Z,24.90
2017-08-03T22:34:06.353Z,24.70
2017-08-03T22:36:36.964Z,24.70
2017-08-03T22:42:49.326Z,24.50
2017-08-03T22:52:12.446Z,24.40
2017-08-03T22:58:30.323Z,24.30
2017-08-03T23:03:50.025Z,24.20
2017-08-03T23:06:34.727Z,24.20
2017-08-03T23:12:03.378Z,24.00
2017-08-03T23:18:54.827Z,24.00
2017-08-03T23:21:25.754Z,23.90
2017-08-03T23:24:02.960Z,23.70
2017-08-03T23:26:31.567Z,23.80
2017-08-03T23:29:00.158Z,23.70
2017-08-03T23:31:28.637Z,23.60
2017-08-03T23:37:20.679Z,23.50
2017-08-03T23:43:10.625Z,23.50
2017-08-03T23:45:39.928Z,23.40
2017-08-03T23:54:12.037Z,23.30
2017-08-03T23:56:46.336Z,23.20
